ADDS TAF Data INFO
IDs: Format: Raw Decoded Include METARs

Data at: 0942 UTC 19 Jan 2018

KBLF 190852Z AUTO 26007KT 10SM CLR M06/M16 A3015 RMK AO2 SLP238 T10611156 56014

KBLF 190520Z 1906/2006 26009KT P6SM SKC WS020/27035KT
  FM200100 24006KT P6SM SKC